Marshalls Creek, Pennsylvania
Current Conditions -  °F | °C
As of 8:53 AM on Monday 24 Nov 2014 (Local Time) from KMPO Reporting Station
Light Rain Light Rain  
Wind Chill: 58°   Ceiling: 900
Heat Index: 58°   Visibility: 8mi
Dew Point: 55°   Wind: 15mph
Humidity: 90%   Direction: 220°SW
Pressure: 29.64"   Gusts: 30mph
Location:  41.04°N, 75.13°W
Report Text: KMPO 241353Z AUTO 22013G26KT 8SM -RA OVC009 14/13 A2964 RMK AO2 PK WND 21027/1301 RAB21 CIG 006V012 SLP040 P0002 T01440128
Loading
Personal Weather Stations






























Interactive Weather Map New forecast layout! Learn more

10-Day Weather Forecast

Advertisements
Track Severe Weather on mobile